Time;durP1;ratioP1;P1;durP2;ratioP2;P2;SDS_P1;SDS_P2;PMS_P1;PMS_P2;Temp;Humidity;BMP_temperature;BMP_pressure;BME280_temperature;BME280_humidity;BME280_pressure;Samples;Min_cycle;Max_cycle;Signal;HPM_P1;HPM_P2
2022/04/23 00:00:14;;;;;;;7.07;4.93;;;;;;;;;;5052337;28;20359;-77
2022/04/23 00:02:42;;;;;;;14.15;5.20;;;;;;;;;;5053931;28;20482;-77
2022/04/23 00:05:08;;;;;;;7.10;4.40;;;;;;;;;;5053538;28;20083;-77
2022/04/23 00:07:34;;;;;;;11.13;6.20;;;;;;;;;;5053615;28;20753;-77
2022/04/23 00:10:00;;;;;;;9.73;5.63;;;;;;;;;;5053640;28;20032;-77
2022/04/23 00:12:26;;;;;;;8.05;4.95;;;;;;;;;;5039317;28;20055;-77
2022/04/23 00:14:53;;;;;;;11.25;5.15;;;;;;;;;;5033725;28;20030;-77
2022/04/23 00:17:19;;;;;;;9.65;5.55;;;;;;;;;;5033470;28;20021;-77
2022/04/23 00:19:47;;;;;;;8.40;5.55;;;;;;;;;;5033610;28;20030;-77
2022/04/23 00:22:13;;;;;;;11.00;6.28;;;;;;;;;;5048451;28;20021;-77
2022/04/23 00:24:39;;;;;;;13.52;6.47;;;;;;;;;;5053419;28;20100;-77
2022/04/23 00:27:06;;;;;;;10.18;6.70;;;;;;;;;;5053462;28;20103;-77
2022/04/23 00:29:32;;;;;;;13.93;5.80;;;;;;;;;;5053217;28;20051;-78
2022/04/23 00:31:58;;;;;;;11.30;5.95;;;;;;;;;;5051832;28;20032;-77
2022/04/23 00:34:26;;;;;;;9.82;6.38;;;;;;;;;;5053075;28;20048;-77
2022/04/23 00:36:52;;;;;;;13.25;6.72;;;;;;;;;;5052848;28;20021;-77
2022/04/23 00:39:18;;;;;;;11.00;6.85;;;;;;;;;;5053038;28;20116;-77
2022/04/23 00:41:45;;;;;;;9.77;6.40;;;;;;;;;;5052968;28;20511;-77
2022/04/23 00:44:11;;;;;;;11.40;7.75;;;;;;;;;;5052853;28;20029;-77
2022/04/23 00:46:37;;;;;;;13.10;6.63;;;;;;;;;;5053033;28;20029;-77
2022/04/23 00:49:05;;;;;;;11.45;6.53;;;;;;;;;;5052896;28;20056;-77
2022/04/23 00:51:32;;;;;;;11.55;7.00;;;;;;;;;;5052893;28;20430;-77
2022/04/23 00:53:59;;;;;;;14.20;7.45;;;;;;;;;;5052701;28;20022;-77
2022/04/23 00:56:26;;;;;;;12.52;7.20;;;;;;;;;;5052911;28;20410;-77
2022/04/23 00:58:52;;;;;;;14.73;7.80;;;;;;;;;;5052733;28;20055;-77
2022/04/23 01:01:23;;;;;;;19.45;8.05;;;;;;;;;;5052559;28;20033;-77
2022/04/23 01:03:49;;;;;;;15.65;7.57;;;;;;;;;;5052663;28;20033;-77
2022/04/23 01:06:16;;;;;;;12.38;8.05;;;;;;;;;;5052371;28;20514;-77
2022/04/23 01:08:42;;;;;;;12.02;7.47;;;;;;;;;;5052335;28;20029;-77
2022/04/23 01:11:08;;;;;;;18.10;8.18;;;;;;;;;;5050494;28;20518;-77
2022/04/23 01:13:34;;;;;;;12.38;8.23;;;;;;;;;;5032603;28;20107;-77
2022/04/23 01:16:02;;;;;;;11.13;8.15;;;;;;;;;;5032800;28;20113;-77
2022/04/23 01:18:28;;;;;;;14.75;8.48;;;;;;;;;;5031148;28;20025;-77
2022/04/23 01:20:57;;;;;;;13.05;8.38;;;;;;;;;;5036349;28;20021;-77
2022/04/23 01:23:24;;;;;;;13.38;8.90;;;;;;;;;;5052425;28;20029;-77
2022/04/23 01:25:52;;;;;;;13.93;8.60;;;;;;;;;;5052233;28;20028;-77
2022/04/23 01:28:20;;;;;;;13.70;9.07;;;;;;;;;;5051829;28;20566;-77
2022/04/23 01:30:48;;;;;;;11.63;8.40;;;;;;;;;;5040820;28;20040;-77
2022/04/23 01:33:14;;;;;;;13.40;9.30;;;;;;;;;;5032089;28;20032;-77
2022/04/23 01:35:40;;;;;;;14.32;9.55;;;;;;;;;;5032077;28;20021;-77
2022/04/23 01:38:06;;;;;;;14.75;9.50;;;;;;;;;;5032121;28;20029;-76
2022/04/23 01:40:32;;;;;;;18.98;9.13;;;;;;;;;;5030794;28;20357;-76
2022/04/23 01:42:58;;;;;;;16.98;9.85;;;;;;;;;;5032210;28;20026;-76
2022/04/23 01:45:25;;;;;;;19.45;9.80;;;;;;;;;;5032159;28;20033;-77
2022/04/23 01:47:51;;;;;;;16.52;10.15;;;;;;;;;;5032064;28;20471;-77
2022/04/23 01:50:17;;;;;;;16.20;10.65;;;;;;;;;;5031854;28;20033;-77
2022/04/23 01:52:43;;;;;;;17.48;10.57;;;;;;;;;;5031911;28;20064;-76
2022/04/23 01:55:09;;;;;;;20.77;11.15;;;;;;;;;;5032303;28;20025;-76
2022/04/23 01:57:35;;;;;;;17.20;10.93;;;;;;;;;;5031917;28;20029;-77
2022/04/23 02:00:01;;;;;;;16.70;10.90;;;;;;;;;;5031860;28;20041;-77
2022/04/23 02:02:27;;;;;;;15.00;10.60;;;;;;;;;;5051039;28;20631;-77
2022/04/23 02:04:53;;;;;;;19.40;10.55;;;;;;;;;;5051544;28;20130;-77
2022/04/23 02:07:20;;;;;;;17.52;11.10;;;;;;;;;;5051389;28;20688;-77
2022/04/23 02:09:46;;;;;;;18.20;11.60;;;;;;;;;;5051581;28;20032;-77
2022/04/23 02:12:12;;;;;;;21.48;11.80;;;;;;;;;;5040654;28;20028;-77
2022/04/23 02:14:38;;;;;;;16.85;11.73;;;;;;;;;;5031602;28;20021;-77
2022/04/23 02:17:04;;;;;;;20.10;12.73;;;;;;;;;;5031745;28;20544;-77
2022/04/23 02:19:30;;;;;;;20.05;13.15;;;;;;;;;;5031540;28;20096;-77
2022/04/23 02:21:56;;;;;;;21.35;12.45;;;;;;;;;;5044022;28;20052;-77
2022/04/23 02:24:22;;;;;;;26.00;13.48;;;;;;;;;;5051433;28;20029;-77
2022/04/23 02:26:48;;;;;;;19.88;13.07;;;;;;;;;;5051585;28;20074;-77
2022/04/23 02:29:14;;;;;;;20.85;13.98;;;;;;;;;;5051530;28;20065;-77
2022/04/23 02:31:40;;;;;;;19.98;12.93;;;;;;;;;;5032963;28;20089;-77
2022/04/23 02:34:06;;;;;;;21.42;13.65;;;;;;;;;;5031406;28;20048;-77
2022/04/23 02:36:32;;;;;;;27.23;14.30;;;;;;;;;;5031480;28;20456;-77
2022/04/23 02:38:59;;;;;;;20.63;13.52;;;;;;;;;;5030031;28;20380;-77
2022/04/23 02:41:25;;;;;;;21.02;14.65;;;;;;;;;;5034436;28;20018;-77
2022/04/23 02:43:51;;;;;;;23.35;14.80;;;;;;;;;;5035472;28;20366;-77
2022/04/23 02:46:17;;;;;;;21.50;15.10;;;;;;;;;;5035357;28;20033;-77
2022/04/23 02:48:44;;;;;;;21.05;13.98;;;;;;;;;;5035330;28;20029;-77
2022/04/23 02:51:15;;;;;;;22.00;15.15;;;;;;;;;;5035198;28;20029;-77
2022/04/23 02:53:41;;;;;;;20.38;14.50;;;;;;;;;;5035255;28;20471;-77
2022/04/23 02:56:13;;;;;;;21.25;14.52;;;;;;;;;;5034053;28;20441;-77
2022/04/23 02:58:40;;;;;;;23.98;14.77;;;;;;;;;;5035145;28;20021;-77
2022/04/23 03:01:09;;;;;;;22.35;14.73;;;;;;;;;;5042956;28;20028;-77
2022/04/23 03:03:37;;;;;;;24.02;15.15;;;;;;;;;;5054931;28;20037;-76
2022/04/23 03:06:05;;;;;;;23.05;15.93;;;;;;;;;;5054887;28;20059;-76
2022/04/23 03:08:31;;;;;;;23.63;14.98;;;;;;;;;;5054885;28;20487;-76
2022/04/23 03:10:57;;;;;;;25.90;15.48;;;;;;;;;;5054154;28;20104;-77
2022/04/23 03:13:24;;;;;;;22.92;15.80;;;;;;;;;;5034897;28;20105;-76
2022/04/23 03:15:50;;;;;;;23.75;15.93;;;;;;;;;;5034660;28;20513;-77
2022/04/23 03:18:16;;;;;;;23.42;15.88;;;;;;;;;;5034807;28;20027;-77
2022/04/23 03:20:42;;;;;;;24.30;15.98;;;;;;;;;;5037143;28;20105;-76
2022/04/23 03:23:09;;;;;;;23.63;15.95;;;;;;;;;;5054671;28;20115;-76
2022/04/23 03:25:35;;;;;;;24.02;15.60;;;;;;;;;;5053218;28;20029;-76
2022/04/23 03:28:01;;;;;;;40.83;16.63;;;;;;;;;;5054576;28;20037;-76
2022/04/23 03:30:27;;;;;;;24.98;16.38;;;;;;;;;;5054143;28;20489;-76
2022/04/23 03:32:54;;;;;;;27.80;16.92;;;;;;;;;;5054230;28;20025;-77
2022/04/23 03:35:21;;;;;;;25.27;17.02;;;;;;;;;;5054019;28;20025;-76
2022/04/23 03:37:48;;;;;;;25.88;17.30;;;;;;;;;;5054276;28;20032;-76
2022/04/23 03:40:15;;;;;;;24.35;16.83;;;;;;;;;;5054211;28;20017;-77
2022/04/23 03:42:42;;;;;;;25.25;17.00;;;;;;;;;;5054190;28;20030;-77
2022/04/23 03:45:09;;;;;;;28.80;17.80;;;;;;;;;;5053869;28;20028;-77
2022/04/23 03:47:35;;;;;;;27.60;17.40;;;;;;;;;;5054173;28;20033;-77
2022/04/23 03:50:05;;;;;;;25.50;17.90;;;;;;;;;;5053958;28;20471;-77
2022/04/23 03:52:31;;;;;;;26.92;18.17;;;;;;;;;;5051863;28;20029;-77
2022/04/23 03:54:57;;;;;;;28.05;18.10;;;;;;;;;;5052652;28;20033;-77
2022/04/23 03:57:23;;;;;;;31.17;18.90;;;;;;;;;;5054128;28;20029;-77
2022/04/23 03:59:50;;;;;;;24.67;17.58;;;;;;;;;;5052435;28;20029;-77
2022/04/23 04:02:16;;;;;;;28.10;18.40;;;;;;;;;;5053569;28;20033;-77
2022/04/23 04:04:42;;;;;;;29.88;18.80;;;;;;;;;;5052317;28;20032;-77
2022/04/23 04:07:08;;;;;;;27.70;18.25;;;;;;;;;;5053684;28;20049;-77
2022/04/23 04:09:35;;;;;;;26.60;18.02;;;;;;;;;;5053674;28;20098;-77
2022/04/23 04:12:01;;;;;;;30.10;18.73;;;;;;;;;;5044247;28;20417;-77
2022/04/23 04:14:27;;;;;;;28.13;18.92;;;;;;;;;;5033638;28;20029;-77
2022/04/23 04:16:53;;;;;;;27.30;18.73;;;;;;;;;;5033687;28;20072;-77
2022/04/23 04:19:19;;;;;;;28.55;18.73;;;;;;;;;;5033598;28;20376;-77
2022/04/23 04:21:46;;;;;;;29.48;20.35;;;;;;;;;;5044473;28;20021;-77
2022/04/23 04:24:13;;;;;;;28.95;19.10;;;;;;;;;;5053440;28;20029;-77
2022/04/23 04:26:43;;;;;;;30.58;19.60;;;;;;;;;;5053467;28;20025;-77
2022/04/23 04:29:09;;;;;;;30.90;19.75;;;;;;;;;;5053321;28;20052;-77
2022/04/23 04:31:49;;;;;;;29.50;19.58;;;;;;;;;;5052932;28;20036;-77
2022/04/23 04:34:19;;;;;;;27.65;18.45;;;;;;;;;;5053115;28;20087;-77
2022/04/23 04:36:46;;;;;;;28.70;18.67;;;;;;;;;;5053056;28;20524;-77
2022/04/23 04:39:13;;;;;;;31.27;20.42;;;;;;;;;;5053055;28;20021;-77
2022/04/23 04:41:39;;;;;;;30.02;20.08;;;;;;;;;;5053127;28;20021;-77
2022/04/23 04:44:05;;;;;;;30.60;20.65;;;;;;;;;;5052989;28;20035;-77
2022/04/23 04:46:32;;;;;;;26.75;19.55;;;;;;;;;;5052896;28;20028;-77
2022/04/23 04:48:58;;;;;;;32.35;20.08;;;;;;;;;;5053097;28;20372;-78
2022/04/23 04:51:24;;;;;;;31.92;20.15;;;;;;;;;;5052935;28;20438;-77
2022/04/23 04:53:52;;;;;;;31.58;20.30;;;;;;;;;;5052783;28;20146;-77
2022/04/23 04:56:18;;;;;;;29.42;20.50;;;;;;;;;;5052926;28;20029;-77
2022/04/23 04:58:46;;;;;;;29.48;20.13;;;;;;;;;;5051457;28;20415;-77
2022/04/23 05:01:12;;;;;;;27.73;19.60;;;;;;;;;;5052579;28;20064;-77
2022/04/23 05:03:40;;;;;;;31.92;20.05;;;;;;;;;;5051762;28;20041;-77
2022/04/23 05:06:06;;;;;;;27.80;17.92;;;;;;;;;;5052500;28;20049;-77
2022/04/23 05:08:34;;;;;;;28.27;19.95;;;;;;;;;;5052606;28;20040;-77
2022/04/23 05:11:00;;;;;;;29.95;19.42;;;;;;;;;;5051613;28;20059;-77
2022/04/23 05:13:26;;;;;;;29.50;18.92;;;;;;;;;;5032533;28;20025;-76
2022/04/23 05:15:52;;;;;;;27.15;19.25;;;;;;;;;;5032676;28;20021;-77
2022/04/23 05:18:18;;;;;;;27.25;19.02;;;;;;;;;;5032440;28;20100;-76
2022/04/23 05:20:44;;;;;;;25.73;18.73;;;;;;;;;;5034951;28;20021;-77
2022/04/23 05:23:10;;;;;;;26.35;18.33;;;;;;;;;;5051020;28;20234;-77
2022/04/23 05:25:36;;;;;;;29.58;18.98;;;;;;;;;;5052320;28;20029;-77
2022/04/23 05:28:03;;;;;;;24.30;17.85;;;;;;;;;;5052388;28;20099;-77
2022/04/23 05:30:29;;;;;;;24.17;17.58;;;;;;;;;;5052002;28;20455;-77
2022/04/23 05:32:55;;;;;;;26.77;17.20;;;;;;;;;;5052181;28;20132;-77
2022/04/23 05:35:21;;;;;;;26.20;16.65;;;;;;;;;;5052130;28;20025;-77
2022/04/23 05:37:47;;;;;;;23.35;15.77;;;;;;;;;;5052415;28;20025;-77
2022/04/23 05:40:13;;;;;;;25.77;16.80;;;;;;;;;;5052405;28;20024;-76
2022/04/23 05:42:39;;;;;;;25.05;15.75;;;;;;;;;;5053247;28;20379;-77
2022/04/23 05:45:05;;;;;;;21.88;15.65;;;;;;;;;;5051804;28;20021;-76
2022/04/23 05:47:31;;;;;;;20.90;14.82;;;;;;;;;;5051837;28;20036;-77
2022/04/23 05:49:57;;;;;;;21.33;14.52;;;;;;;;;;5051691;28;20203;-77
2022/04/23 05:52:23;;;;;;;22.40;15.82;;;;;;;;;;5051860;28;20029;-77
2022/04/23 05:54:49;;;;;;;20.90;14.57;;;;;;;;;;5051954;28;20036;-77
2022/04/23 05:57:16;;;;;;;20.67;14.35;;;;;;;;;;5051712;28;20017;-77
2022/04/23 05:59:42;;;;;;;20.60;14.77;;;;;;;;;;5051666;28;20028;-77
2022/04/23 06:02:08;;;;;;;21.05;14.50;;;;;;;;;;5050203;28;20045;-77
2022/04/23 06:04:34;;;;;;;20.73;14.93;;;;;;;;;;5051784;28;20029;-77
2022/04/23 06:07:00;;;;;;;25.35;13.77;;;;;;;;;;5051500;28;20045;-77
2022/04/23 06:09:26;;;;;;;19.02;13.73;;;;;;;;;;5051575;28;20040;-77
2022/04/23 06:11:53;;;;;;;18.02;13.20;;;;;;;;;;5043286;28;20130;-76
2022/04/23 06:14:19;;;;;;;23.33;14.38;;;;;;;;;;5031563;28;20042;-76
2022/04/23 06:16:45;;;;;;;17.25;12.85;;;;;;;;;;5029890;28;20040;-77
2022/04/23 06:19:11;;;;;;;18.13;12.40;;;;;;;;;;5030099;28;20435;-77
2022/04/23 06:21:37;;;;;;;18.23;12.57;;;;;;;;;;5041371;28;20032;-77
2022/04/23 06:24:03;;;;;;;17.08;12.85;;;;;;;;;;5051618;28;20390;-77
2022/04/23 06:26:29;;;;;;;20.58;13.23;;;;;;;;;;5051544;28;20025;-77
2022/04/23 06:28:55;;;;;;;17.17;12.68;;;;;;;;;;5051523;28;20041;-77
2022/04/23 06:31:22;;;;;;;18.13;12.73;;;;;;;;;;5051389;28;20363;-77
2022/04/23 06:33:48;;;;;;;16.15;12.45;;;;;;;;;;5051199;28;20044;-77
2022/04/23 06:36:14;;;;;;;17.40;12.43;;;;;;;;;;5051315;28;20025;-77
2022/04/23 06:38:40;;;;;;;16.75;12.40;;;;;;;;;;5051374;28;20152;-77
2022/04/23 06:41:07;;;;;;;20.38;12.77;;;;;;;;;;5051443;28;20368;-77
2022/04/23 06:43:33;;;;;;;18.58;12.23;;;;;;;;;;5051356;28;20056;-77
2022/04/23 06:45:59;;;;;;;15.98;12.18;;;;;;;;;;5051114;28;20029;-76
2022/04/23 06:48:25;;;;;;;18.15;12.18;;;;;;;;;;5051069;28;20033;-76
2022/04/23 06:50:52;;;;;;;16.02;12.05;;;;;;;;;;5051385;28;20368;-77
2022/04/23 06:53:18;;;;;;;18.58;11.63;;;;;;;;;;5050977;28;20400;-77
2022/04/23 06:55:44;;;;;;;15.18;11.52;;;;;;;;;;5051185;28;20086;-77
2022/04/23 06:58:11;;;;;;;17.63;12.45;;;;;;;;;;5050927;28;20032;-77
2022/04/23 07:00:41;;;;;;;18.20;11.98;;;;;;;;;;5049907;28;20051;-76
2022/04/23 07:03:08;;;;;;;17.67;10.50;;;;;;;;;;5051017;28;20021;-77
2022/04/23 07:05:34;;;;;;;16.83;11.63;;;;;;;;;;5050797;28;20056;-77
2022/04/23 07:08:01;;;;;;;16.65;11.70;;;;;;;;;;5050839;28;20082;-77
2022/04/23 07:10:28;;;;;;;16.95;11.75;;;;;;;;;;5050731;28;20036;-77
2022/04/23 07:12:54;;;;;;;17.58;11.23;;;;;;;;;;5034404;28;20101;-77
2022/04/23 07:15:21;;;;;;;17.42;11.32;;;;;;;;;;5030936;28;20017;-77
2022/04/23 07:17:47;;;;;;;14.05;10.68;;;;;;;;;;5031104;28;20474;-78
2022/04/23 07:20:14;;;;;;;15.85;10.93;;;;;;;;;;5030847;28;20034;-76
2022/04/23 07:22:40;;;;;;;14.70;11.27;;;;;;;;;;5049239;28;20024;-76
2022/04/23 07:25:11;;;;;;;16.20;11.15;;;;;;;;;;5050809;28;20108;-75
2022/04/23 07:27:37;;;;;;;16.88;11.65;;;;;;;;;;5052299;28;20036;-76
2022/04/23 07:30:03;;;;;;;17.05;11.40;;;;;;;;;;5054142;28;20037;-76
2022/04/23 07:32:29;;;;;;;21.83;11.18;;;;;;;;;;5054314;28;20025;-76
2022/04/23 07:37:40;;;;;;;15.73;11.38;;;;;;;;;;5054300;28;20435;-76
2022/04/23 07:40:10;;;;;;;15.73;10.73;;;;;;;;;;5054162;28;20533;-76
2022/04/23 07:42:37;;;;;;;17.17;11.48;;;;;;;;;;5054265;28;20064;-78
2022/04/23 07:45:04;;;;;;;16.70;11.18;;;;;;;;;;5054031;28;20035;-74
2022/04/23 07:47:30;;;;;;;16.25;11.07;;;;;;;;;;5052822;28;20029;-72
2022/04/23 07:49:57;;;;;;;15.00;11.48;;;;;;;;;;5053814;28;20029;-73
2022/04/23 07:52:23;;;;;;;15.70;11.32;;;;;;;;;;5053959;28;20112;-72
2022/04/23 07:54:49;;;;;;;15.10;11.60;;;;;;;;;;5054112;28;20029;-71
2022/04/23 07:57:20;;;;;;;19.48;11.60;;;;;;;;;;5052560;28;20079;-71
2022/04/23 07:59:47;;;;;;;15.10;11.38;;;;;;;;;;5054070;28;20083;-71
2022/04/23 08:02:13;;;;;;;16.00;11.27;;;;;;;;;;5053754;28;20422;-71
2022/04/23 08:04:39;;;;;;;17.85;12.13;;;;;;;;;;5053758;28;20021;-71
2022/04/23 08:07:05;;;;;;;15.90;11.30;;;;;;;;;;5053569;28;20056;-71
2022/04/23 08:09:37;;;;;;;16.67;12.20;;;;;;;;;;5053622;28;20032;-71
2022/04/23 08:12:03;;;;;;;;;;;;;;;;;;5044489;28;20032;-71
2022/04/23 08:14:29;;;;;;;21.02;10.93;;;;;;;;;;5033731;28;19905;-71
2022/04/23 08:16:56;;;;;;;14.07;10.63;;;;;;;;;;5033519;28;20025;-72
2022/04/23 08:19:23;;;;;;;16.02;11.05;;;;;;;;;;5033639;28;20057;-72
2022/04/23 08:21:49;;;;;;;15.88;11.00;;;;;;;;;;5044796;28;20025;-72
2022/04/23 08:24:15;;;;;;;17.65;11.23;;;;;;;;;;5053384;28;20032;-71
2022/04/23 08:26:41;;;;;;;21.35;11.25;;;;;;;;;;5053337;28;20025;-71
2022/04/23 08:31:52;;;;;;;14.25;11.05;;;;;;;;;;5033371;28;20033;-72
2022/04/23 08:34:18;;;;;;;14.48;11.00;;;;;;;;;;5033222;28;20456;-72
2022/04/23 08:36:44;;;;;;;16.15;11.90;;;;;;;;;;5033187;28;20033;-71
2022/04/23 08:39:11;;;;;;;19.92;11.55;;;;;;;;;;5032994;28;20029;-72
2022/04/23 08:41:37;;;;;;;17.95;11.75;;;;;;;;;;5033396;28;20079;-71
2022/04/23 08:44:07;;;;;;;15.57;10.82;;;;;;;;;;5033349;28;20112;-72
2022/04/23 08:46:37;;;;;;;19.33;11.48;;;;;;;;;;5031604;28;20388;-72
2022/04/23 08:49:09;;;;;;;16.88;11.98;;;;;;;;;;5033137;28;20506;-72
2022/04/23 08:51:36;;;;;;;17.60;11.63;;;;;;;;;;5033142;28;20053;-71
2022/04/23 08:54:07;;;;;;;17.58;11.77;;;;;;;;;;5031547;28;21834;-71
2022/04/23 08:56:34;;;;;;;16.38;11.43;;;;;;;;;;5032886;28;20021;-71
2022/04/23 08:59:01;;;;;;;17.38;11.98;;;;;;;;;;5032894;28;20444;-72
2022/04/23 09:01:30;;;;;;;19.92;11.25;;;;;;;;;;5043466;28;20036;-72
2022/04/23 09:03:56;;;;;;;16.30;12.07;;;;;;;;;;5052940;28;20033;-72
2022/04/23 09:06:23;;;;;;;20.20;12.38;;;;;;;;;;5052506;28;20052;-72
2022/04/23 09:09:07;;;;;;;17.98;12.32;;;;;;;;;;5052768;28;20052;-71
2022/04/23 09:11:37;;;;;;;15.98;11.65;;;;;;;;;;5047125;28;20074;-71
2022/04/23 09:14:06;;;;;;;17.92;11.98;;;;;;;;;;5032523;28;20029;-72
2022/04/23 09:25:11;;;;;;;14.93;11.50;;;;;;;;;;5052383;28;20036;-71
2022/04/23 09:27:37;;;;;;;20.38;12.27;;;;;;;;;;5052160;28;20024;-71
2022/04/23 09:30:08;;;;;;;17.88;11.63;;;;;;;;;;5051902;28;20689;-72
2022/04/23 09:32:34;;;;;;;16.45;11.25;;;;;;;;;;5052106;28;20486;-72
2022/04/23 09:35:07;;;;;;;17.63;12.10;;;;;;;;;;5051874;28;20029;-72
2022/04/23 09:40:21;;;;;;;15.57;10.63;;;;;;;;;;5052235;28;20044;-73
2022/04/23 09:43:01;;;;;;;17.85;11.60;;;;;;;;;;5052041;28;20036;-72
2022/04/23 09:45:29;;;;;;;18.08;10.93;;;;;;;;;;5051966;28;20397;-72
2022/04/23 09:47:55;;;;;;;19.65;10.82;;;;;;;;;;5051948;28;20541;-72
2022/04/23 09:50:21;;;;;;;16.63;11.27;;;;;;;;;;5051247;28;20416;-72
2022/04/23 09:52:49;;;;;;;15.30;11.18;;;;;;;;;;5050536;28;20029;-72
2022/04/23 09:55:16;;;;;;;18.40;11.52;;;;;;;;;;5052143;28;20426;-72
2022/04/23 09:57:45;;;;;;;20.98;12.40;;;;;;;;;;5051928;28;20028;-73
2022/04/23 10:00:11;;;;;;;15.02;11.32;;;;;;;;;;5051481;28;20017;-72
2022/04/23 10:02:38;;;;;;;16.65;11.73;;;;;;;;;;5051748;28;20561;-72
2022/04/23 10:05:05;;;;;;;18.38;12.45;;;;;;;;;;5051522;28;20017;-73
2022/04/23 10:07:34;;;;;;;17.90;12.10;;;;;;;;;;5051552;28;20079;-73
2022/04/23 10:10:01;;;;;;;19.67;11.85;;;;;;;;;;5051473;28;20052;-73
2022/04/23 10:12:28;;;;;;;20.20;12.18;;;;;;;;;;5038512;28;20052;-72
2022/04/23 10:14:56;;;;;;;18.10;12.25;;;;;;;;;;5031615;28;20426;-72
2022/04/23 10:17:24;;;;;;;17.52;11.75;;;;;;;;;;5031785;28;20021;-72
2022/04/23 10:19:50;;;;;;;17.02;12.77;;;;;;;;;;5031605;28;20017;-73
2022/04/23 10:22:21;;;;;;;20.02;12.98;;;;;;;;;;5046605;28;20028;-73
2022/04/23 10:24:52;;;;;;;17.77;12.45;;;;;;;;;;5051371;28;20095;-72
2022/04/23 10:27:19;;;;;;;21.40;12.18;;;;;;;;;;5051632;28;20029;-72
2022/04/23 10:29:45;;;;;;;20.23;13.00;;;;;;;;;;5051400;28;20025;-72
2022/04/23 10:32:12;;;;;;;17.48;12.15;;;;;;;;;;5051279;28;20029;-72
2022/04/23 10:34:38;;;;;;;16.13;12.50;;;;;;;;;;5051369;28;20021;-72
2022/04/23 10:37:20;;;;;;;18.55;13.32;;;;;;;;;;5051328;28;20064;-73
2022/04/23 10:39:52;;;;;;;23.33;13.30;;;;;;;;;;5051373;28;20040;-73
2022/04/23 10:42:22;;;;;;;16.23;12.38;;;;;;;;;;5051510;28;20420;-73
2022/04/23 10:44:48;;;;;;;18.45;12.80;;;;;;;;;;5051528;28;20024;-73
2022/04/23 10:47:32;;;;;;;16.65;12.63;;;;;;;;;;5051329;28;20356;-73
2022/04/23 10:50:27;;;;;;;19.65;11.60;;;;;;;;;;5051265;28;20040;-72
2022/04/23 10:52:55;;;;;;;18.95;12.63;;;;;;;;;;5041664;28;20045;-71
2022/04/23 10:55:21;;;;;;;19.17;12.20;;;;;;;;;;5050041;28;20036;-73
2022/04/23 10:57:48;;;;;;;23.58;12.63;;;;;;;;;;5051373;28;20491;-73
2022/04/23 11:00:18;;;;;;;26.98;12.48;;;;;;;;;;5051042;28;20025;-73
2022/04/23 11:02:48;;;;;;;18.08;12.63;;;;;;;;;;5054563;28;20025;-71
2022/04/23 11:13:50;;;;;;;24.17;12.77;;;;;;;;;;5034848;28;20107;-71
2022/04/23 11:16:17;;;;;;;22.98;13.77;;;;;;;;;;5033511;28;20025;-71
2022/04/23 11:18:44;;;;;;;22.25;13.63;;;;;;;;;;5034934;28;20487;-72
2022/04/23 11:21:14;;;;;;;19.67;13.93;;;;;;;;;;5039435;28;20053;-71
2022/04/23 11:23:42;;;;;;;23.88;14.73;;;;;;;;;;5054701;28;20029;-72
2022/04/23 11:26:11;;;;;;;18.73;13.77;;;;;;;;;;5054664;28;20025;-72
2022/04/23 11:28:38;;;;;;;24.05;14.25;;;;;;;;;;5054642;28;20116;-72
2022/04/23 11:31:15;;;;;;;20.80;14.27;;;;;;;;;;5054476;28;20359;-72
2022/04/23 11:33:51;;;;;;;21.63;14.68;;;;;;;;;;5054301;28;20057;-71
2022/04/23 11:36:18;;;;;;;21.77;14.15;;;;;;;;;;5054397;28;20122;-72
2022/04/23 11:38:44;;;;;;;18.27;13.70;;;;;;;;;;5054493;28;20029;-72
2022/04/23 11:41:10;;;;;;;19.95;13.98;;;;;;;;;;5054259;28;20017;-72
2022/04/23 11:43:40;;;;;;;29.25;14.07;;;;;;;;;;5054099;28;20561;-72
2022/04/23 11:46:07;;;;;;;23.00;14.43;;;;;;;;;;5053449;28;20025;-71
2022/04/23 11:48:40;;;;;;;22.98;13.90;;;;;;;;;;5053943;28;20036;-72
2022/04/23 11:51:06;;;;;;;18.92;14.20;;;;;;;;;;5053984;28;20222;-75
2022/04/23 11:53:49;;;;;;;25.40;13.90;;;;;;;;;;5054082;28;20530;-75
2022/04/23 11:56:24;;;;;;;20.58;14.05;;;;;;;;;;5054048;28;20032;-75
2022/04/23 11:58:54;;;;;;;26.55;14.13;;;;;;;;;;5051839;28;20021;-75
2022/04/23 12:01:24;;;;;;;19.60;14.15;;;;;;;;;;5051611;28;20032;-76
2022/04/23 12:03:53;;;;;;;20.75;14.25;;;;;;;;;;5054289;28;20025;-77
2022/04/23 12:06:20;;;;;;;21.38;14.15;;;;;;;;;;5054361;28;20049;-79
2022/04/23 12:08:46;;;;;;;21.65;14.30;;;;;;;;;;5054562;28;20047;-76
2022/04/23 12:11:22;;;;;;;21.67;14.85;;;;;;;;;;5051339;28;20032;-75
2022/04/23 12:13:48;;;;;;;27.05;14.35;;;;;;;;;;5033064;28;20101;-75
2022/04/23 12:16:17;;;;;;;23.10;14.95;;;;;;;;;;5032322;28;20025;-77
2022/04/23 12:18:43;;;;;;;22.58;14.25;;;;;;;;;;5034254;28;20030;-79
2022/04/23 12:21:09;;;;;;;19.63;14.48;;;;;;;;;;5039622;28;20025;-78
2022/04/23 12:23:42;;;;;;;19.73;13.70;;;;;;;;;;5053490;28;20021;-78
2022/04/23 12:26:08;;;;;;;20.02;12.93;;;;;;;;;;5053776;28;20421;-78
2022/04/23 12:42:24;;;;;;;21.95;12.88;;;;;;;;;;5053657;28;20046;-79
2022/04/23 12:44:52;;;;;;;23.65;12.02;;;;;;;;;;5052016;28;20383;-76
2022/04/23 12:47:35;;;;;;;18.80;12.60;;;;;;;;;;5053187;28;20032;-76
2022/04/23 12:50:06;;;;;;;24.88;12.40;;;;;;;;;;5052912;28;20434;-75
2022/04/23 12:52:44;;;;;;;24.27;12.40;;;;;;;;;;5053046;28;20033;-75
2022/04/23 12:55:13;;;;;;;18.27;12.70;;;;;;;;;;5053335;28;20040;-75
2022/04/23 12:57:43;;;;;;;17.20;12.65;;;;;;;;;;5052990;28;20017;-74
2022/04/23 13:00:11;;;;;;;22.60;13.35;;;;;;;;;;5052728;28;20021;-74
2022/04/23 13:02:38;;;;;;;16.60;11.95;;;;;;;;;;5052938;28;20040;-75
2022/04/23 13:05:05;;;;;;;18.33;11.77;;;;;;;;;;5052702;28;20025;-74
2022/04/23 13:10:16;;;;;;;17.80;11.50;;;;;;;;;;5052602;28;20507;-74
2022/04/23 13:12:42;;;;;;;18.58;11.85;;;;;;;;;;5037616;28;20055;-74
2022/04/23 13:15:09;;;;;;;17.70;12.48;;;;;;;;;;5032545;28;20021;-74
2022/04/23 13:17:35;;;;;;;17.63;12.80;;;;;;;;;;5032818;28;20030;-75
2022/04/23 13:20:02;;;;;;;17.58;12.15;;;;;;;;;;5032475;28;20107;-75
2022/04/23 13:22:28;;;;;;;23.17;13.30;;;;;;;;;;5049338;28;20433;-75
2022/04/23 13:24:54;;;;;;;17.85;11.93;;;;;;;;;;5051522;28;20021;-75
2022/04/23 13:27:20;;;;;;;15.35;10.25;;;;;;;;;;5052429;28;20033;-75
2022/04/23 13:29:46;;;;;;;19.35;11.35;;;;;;;;;;5052098;28;20028;-74
2022/04/23 13:32:12;;;;;;;14.10;10.30;;;;;;;;;;5052326;28;20075;-75
2022/04/23 13:34:38;;;;;;;16.92;10.45;;;;;;;;;;5052116;28;20060;-75
2022/04/23 13:37:04;;;;;;;15.23;10.10;;;;;;;;;;5052216;28;20056;-75
2022/04/23 13:39:31;;;;;;;17.38;10.27;;;;;;;;;;5052277;28;20409;-76
2022/04/23 13:41:57;;;;;;;11.98;9.48;;;;;;;;;;5052289;28;20552;-75
2022/04/23 13:44:23;;;;;;;15.20;9.80;;;;;;;;;;5052189;28;20111;-75
2022/04/23 13:46:51;;;;;;;14.48;9.63;;;;;;;;;;5051508;28;20033;-74
2022/04/23 13:49:18;;;;;;;17.70;9.05;;;;;;;;;;5050675;28;20403;-74
2022/04/23 13:51:44;;;;;;;14.05;8.45;;;;;;;;;;5052149;28;20501;-75
2022/04/23 13:54:10;;;;;;;12.63;9.40;;;;;;;;;;5051805;28;20033;-75
2022/04/23 13:56:36;;;;;;;11.60;7.97;;;;;;;;;;5050834;28;20029;-75
2022/04/23 13:59:02;;;;;;;11.60;8.32;;;;;;;;;;5051901;28;20028;-76
2022/04/23 14:01:28;;;;;;;13.57;8.77;;;;;;;;;;5051602;28;20024;-76
2022/04/23 14:12:08;;;;;;;10.70;8.07;;;;;;;;;;5051711;28;20453;-77
2022/04/23 14:14:34;;;;;;;13.90;8.52;;;;;;;;;;5051850;28;20104;-77
2022/04/23 14:17:00;;;;;;;15.55;7.97;;;;;;;;;;5050437;28;20025;-77
2022/04/23 14:19:26;;;;;;;11.07;7.90;;;;;;;;;;5051692;28;20024;-76
2022/04/23 14:21:52;;;;;;;9.65;7.13;;;;;;;;;;5051429;28;20021;-76
2022/04/23 14:24:18;;;;;;;14.40;7.28;;;;;;;;;;5051712;28;20118;-77
2022/04/23 14:26:44;;;;;;;7.22;6.18;;;;;;;;;;5050137;28;20025;-74
2022/04/23 14:29:10;;;;;;;15.25;6.93;;;;;;;;;;5051163;28;20116;-74
2022/04/23 14:31:36;;;;;;;10.13;7.05;;;;;;;;;;5051114;28;20032;-77
2022/04/23 14:34:03;;;;;;;10.00;7.13;;;;;;;;;;5051268;28;20021;-74
2022/04/23 14:36:30;;;;;;;12.70;7.13;;;;;;;;;;5052566;28;20084;-75
2022/04/23 14:38:56;;;;;;;10.13;7.28;;;;;;;;;;5055456;28;20056;-75
2022/04/23 14:41:23;;;;;;;11.18;7.30;;;;;;;;;;5055459;28;20021;-75
2022/04/23 14:43:50;;;;;;;8.48;7.22;;;;;;;;;;5055353;28;20025;-76
2022/04/23 14:46:16;;;;;;;10.23;7.22;;;;;;;;;;5055288;28;20338;-76
2022/04/23 14:48:43;;;;;;;13.70;7.30;;;;;;;;;;5053845;28;20021;-75
2022/04/23 14:53:54;;;;;;;12.80;8.70;;;;;;;;;;5047732;28;20094;-79
2022/04/23 14:56:21;;;;;;;10.68;7.97;;;;;;;;;;5050447;28;20021;-78
2022/04/23 14:58:47;;;;;;;9.45;8.18;;;;;;;;;;5047181;28;20371;-78
2022/04/23 15:01:15;;;;;;;12.35;8.13;;;;;;;;;;5044827;28;20440;-79
2022/04/23 15:03:43;;;;;;;12.25;7.97;;;;;;;;;;5044627;28;20037;-78
2022/04/23 15:06:10;;;;;;;10.65;7.72;;;;;;;;;;5050254;28;20033;-77
2022/04/23 15:08:37;;;;;;;9.85;7.57;;;;;;;;;;5041140;28;20021;-76
2022/04/23 15:11:05;;;;;;;12.65;7.65;;;;;;;;;;5050487;28;20095;-77
2022/04/23 15:13:31;;;;;;;15.43;8.45;;;;;;;;;;5043646;28;20053;-76